createdAt,value
2022-11-19T00:01:42.784Z,-2.00
2022-11-19T00:06:45.860Z,-2.01
2022-11-19T00:12:07.700Z,-2.02
2022-11-19T00:17:11.011Z,-2.05
2022-11-19T00:22:14.319Z,-2.07
2022-11-19T00:27:17.629Z,-2.10
2022-11-19T00:32:20.734Z,-2.13
2022-11-19T00:37:24.045Z,-2.17
2022-11-19T00:42:28.379Z,-2.21
2022-11-19T00:47:31.486Z,-2.25
2022-11-19T00:52:34.588Z,-2.31
2022-11-19T00:57:38.312Z,-2.37
2022-11-19T01:02:41.313Z,-2.43
2022-11-19T01:07:44.623Z,-2.48
2022-11-19T01:13:07.191Z,-2.50
2022-11-19T01:18:10.289Z,-2.51
2022-11-19T01:23:13.702Z,-2.49
2022-11-19T01:28:17.117Z,-2.46
2022-11-19T01:33:20.429Z,-2.42
2022-11-19T01:38:23.836Z,-2.39
2022-11-19T01:43:53.470Z,-2.34
2022-11-19T01:49:04.761Z,-2.27
2022-11-19T01:54:15.880Z,-2.19
2022-11-19T01:59:20.316Z,-2.10
2022-11-19T02:04:24.624Z,-2.03
2022-11-19T02:09:29.446Z,-2.00
2022-11-19T02:15:15.687Z,-1.98
2022-11-19T02:20:37.434Z,-1.93
2022-11-19T02:26:31.837Z,-1.87
2022-11-19T02:32:05.048Z,-1.86
2022-11-19T02:37:14.091Z,-1.88
2022-11-19T02:42:37.680Z,-1.90
2022-11-19T02:47:45.187Z,-1.89
2022-11-19T02:52:49.366Z,-1.88
2022-11-19T02:58:06.451Z,-1.88
2022-11-19T03:03:38.745Z,-1.89
2022-11-19T03:08:42.870Z,-1.90
2022-11-19T03:14:25.093Z,-1.91
2022-11-19T03:19:39.771Z,-1.92
2022-11-19T03:24:50.141Z,-1.95
2022-11-19T03:29:57.241Z,-1.97
2022-11-19T03:35:05.569Z,-2.00
2022-11-19T03:40:10.752Z,-2.02
2022-11-19T03:45:17.994Z,-2.02
2022-11-19T03:50:29.122Z,-2.03
2022-11-19T03:55:43.588Z,-2.02
2022-11-19T04:00:46.903Z,-2.03
2022-11-19T04:05:50.519Z,-2.05
2022-11-19T04:10:53.829Z,-2.09
2022-11-19T04:15:56.934Z,-2.12
2022-11-19T04:21:00.346Z,-2.18
2022-11-19T04:26:03.557Z,-2.25
2022-11-19T04:31:06.965Z,-2.35
2022-11-19T04:36:10.793Z,-2.45
2022-11-19T04:41:14.096Z,-2.54
2022-11-19T04:46:17.308Z,-2.61
2022-11-19T04:51:20.614Z,-2.64
2022-11-19T04:56:23.927Z,-2.65
2022-11-19T05:01:27.384Z,-2.63
2022-11-19T05:06:31.364Z,-2.60
2022-11-19T05:11:34.572Z,-2.61
2022-11-19T05:16:37.987Z,-2.63
2022-11-19T05:21:41.192Z,-2.66
2022-11-19T05:26:44.298Z,-2.72
2022-11-19T05:31:47.502Z,-2.79
2022-11-19T05:36:50.618Z,-2.83
2022-11-19T05:41:53.612Z,-2.88
2022-11-19T05:46:57.944Z,-2.91
2022-11-19T05:52:01.667Z,-2.92
2022-11-19T05:57:05.902Z,-2.89
2022-11-19T06:02:09.316Z,-2.85
2022-11-19T06:07:12.870Z,-2.83
2022-11-19T06:12:16.338Z,-2.80
2022-11-19T06:17:19.557Z,-2.77
2022-11-19T06:22:22.757Z,-2.74
2022-11-19T06:27:26.066Z,-2.73
2022-11-19T06:32:29.479Z,-2.71
2022-11-19T06:37:32.683Z,-2.68
2022-11-19T06:42:38.865Z,-2.65
2022-11-19T06:47:42.992Z,-2.64
2022-11-19T06:52:46.505Z,-2.61
2022-11-19T06:57:49.919Z,-2.56
2022-11-19T07:02:53.024Z,-2.52
2022-11-19T07:08:01.563Z,-2.47
2022-11-19T07:13:06.713Z,-2.42
2022-11-19T07:18:10.593Z,-2.40
2022-11-19T07:23:13.944Z,-2.38
2022-11-19T07:28:17.254Z,-2.35
2022-11-19T07:33:20.359Z,-2.30
2022-11-19T07:38:23.671Z,-2.23
2022-11-19T07:43:26.984Z,-2.17
2022-11-19T07:48:30.084Z,-2.10
2022-11-19T07:53:33.296Z,-2.04
2022-11-19T07:58:37.122Z,-1.99
2022-11-19T08:03:42.886Z,-1.97
2022-11-19T08:08:47.327Z,-1.94
2022-11-19T08:13:50.737Z,-1.93
2022-11-19T08:18:53.846Z,-1.87
2022-11-19T08:23:57.148Z,-1.77
2022-11-19T08:29:01.074Z,-1.65
2022-11-19T08:34:04.487Z,-1.51
2022-11-19T08:39:07.899Z,-1.28
2022-11-19T08:44:10.901Z,-0.98
2022-11-19T08:49:14.427Z,-0.68
2022-11-19T08:54:18.050Z,-0.21
2022-11-19T08:59:22.383Z,0.28
2022-11-19T09:04:26.194Z,0.58
2022-11-19T09:09:29.402Z,1.31
2022-11-19T09:14:32.811Z,1.90
2022-11-19T09:19:35.915Z,2.46
2022-11-19T09:24:39.228Z,3.33
2022-11-19T09:29:42.949Z,4.85
2022-11-19T09:34:46.259Z,5.47
2022-11-19T09:39:49.569Z,4.92
2022-11-19T09:45:05.985Z,5.15
2022-11-19T09:50:24.551Z,5.82
2022-11-19T09:55:35.009Z,5.44
2022-11-19T10:00:39.368Z,4.72
2022-11-19T10:06:01.317Z,4.16
2022-11-19T10:11:15.493Z,3.50
2022-11-19T10:16:33.413Z,2.93
2022-11-19T10:22:02.344Z,2.21
2022-11-19T10:27:12.861Z,1.59
2022-11-19T10:32:35.688Z,1.06
2022-11-19T10:37:47.088Z,0.64
2022-11-19T10:42:56.286Z,0.29
2022-11-19T10:48:27.511Z,0.05
2022-11-19T10:53:36.863Z,-0.11
2022-11-19T10:58:46.101Z,-0.22
2022-11-19T11:04:08.489Z,-0.23
2022-11-19T11:09:14.540Z,-0.19
2022-11-19T11:14:41.924Z,-0.20
2022-11-19T11:19:45.527Z,-0.28
2022-11-19T11:24:49.251Z,-0.30
2022-11-19T11:30:25.840Z,-0.36
2022-11-19T11:35:35.032Z,-0.42
2022-11-19T11:40:39.371Z,-0.44
2022-11-19T11:45:42.528Z,-0.44
2022-11-19T11:50:46.451Z,-0.45
2022-11-19T11:55:58.058Z,-0.42
2022-11-19T12:01:20.422Z,-0.43
2022-11-19T12:06:36.727Z,-0.47
2022-11-19T12:11:55.090Z,-0.48
2022-11-19T12:17:17.907Z,-0.48
2022-11-19T12:22:39.805Z,-0.47
2022-11-19T12:27:54.994Z,-0.53
2022-11-19T12:33:12.847Z,-0.59
2022-11-19T12:38:29.879Z,-0.45
2022-11-19T12:43:58.482Z,-0.38
2022-11-19T12:49:13.463Z,-0.34
2022-11-19T12:54:44.830Z,-0.36
2022-11-19T13:00:11.496Z,-0.45
2022-11-19T13:05:20.748Z,-0.56
2022-11-19T13:10:34.968Z,-0.69
2022-11-19T13:15:43.644Z,-0.81
2022-11-19T13:20:52.690Z,-0.88
2022-11-19T13:26:03.470Z,-0.98
2022-11-19T13:31:14.869Z,-1.08
2022-11-19T13:36:25.654Z,-1.15
2022-11-19T13:41:56.977Z,-1.21
2022-11-19T13:47:01.836Z,-1.26
2022-11-19T13:52:15.317Z,-1.32
2022-11-19T13:57:30.199Z,-1.37
2022-11-19T14:02:39.039Z,-1.41
2022-11-19T14:07:50.551Z,-1.44
2022-11-19T14:13:15.460Z,-1.48
2022-11-19T14:18:36.996Z,-1.52
2022-11-19T14:24:08.670Z,-1.54
2022-11-19T14:29:27.011Z,-1.59
2022-11-19T14:34:35.650Z,-1.61
2022-11-19T14:39:43.792Z,-1.62
2022-11-19T14:45:08.298Z,-1.64
2022-11-19T14:50:28.538Z,-1.65
2022-11-19T14:55:34.795Z,-1.67
2022-11-19T15:00:41.220Z,-1.69
2022-11-19T15:05:46.832Z,-1.71
2022-11-19T15:11:04.275Z,-1.73
2022-11-19T15:16:07.788Z,-1.76
2022-11-19T15:21:49.500Z,-1.79
2022-11-19T15:27:03.766Z,-1.82
2022-11-19T15:32:22.957Z,-1.85
2022-11-19T15:38:20.656Z,-1.86
2022-11-19T15:43:45.866Z,-1.86
2022-11-19T15:49:02.040Z,-1.88
2022-11-19T15:54:12.036Z,-1.91
2022-11-19T15:59:19.030Z,-1.95
2022-11-19T16:04:23.301Z,-1.98
2022-11-19T16:09:28.114Z,-2.00
2022-11-19T16:14:49.959Z,-2.01
2022-11-19T16:20:11.808Z,-2.00
2022-11-19T16:25:34.774Z,-2.00
2022-11-19T16:31:04.501Z,-2.02
2022-11-19T16:36:20.819Z,-2.04
2022-11-19T16:41:43.892Z,-2.06
2022-11-19T16:46:48.532Z,-2.10
2022-11-19T16:51:55.225Z,-2.17
2022-11-19T16:56:59.148Z,-2.22
2022-11-19T17:02:03.537Z,-2.26
2022-11-19T17:07:14.767Z,-2.29
2022-11-19T17:12:29.863Z,-2.30
2022-11-19T17:17:40.517Z,-2.31
2022-11-19T17:22:44.577Z,-2.31
2022-11-19T17:27:56.744Z,-2.31
2022-11-19T17:33:05.489Z,-2.31
2022-11-19T17:38:12.553Z,-2.31
2022-11-19T17:43:43.999Z,-2.32
2022-11-19T17:48:49.257Z,-2.33
2022-11-19T17:53:53.485Z,-2.34
2022-11-19T17:58:58.025Z,-2.34
2022-11-19T18:04:01.646Z,-2.34
2022-11-19T18:09:05.977Z,-2.32
2022-11-19T18:14:10.722Z,-2.32
2022-11-19T18:19:25.306Z,-2.34
2022-11-19T18:24:28.811Z,-2.35
2022-11-19T18:29:32.323Z,-2.36
2022-11-19T18:34:35.433Z,-2.39
2022-11-19T18:39:38.945Z,-2.41
2022-11-19T18:44:43.784Z,-2.44
2022-11-19T18:49:47.101Z,-2.48
2022-11-19T18:54:50.309Z,-2.49
2022-11-19T18:59:54.437Z,-2.50
2022-11-19T19:04:58.312Z,-2.51
2022-11-19T19:10:01.880Z,-2.51
2022-11-19T19:15:10.337Z,-2.51
2022-11-19T19:20:14.668Z,-2.51
2022-11-19T19:25:18.345Z,-2.51
2022-11-19T19:30:21.777Z,-2.53
2022-11-19T19:35:24.985Z,-2.55
2022-11-19T19:40:28.631Z,-2.57
2022-11-19T19:45:35.797Z,-2.59
2022-11-19T19:50:39.319Z,-2.59
2022-11-19T19:55:43.255Z,-2.58
2022-11-19T20:00:47.072Z,-2.57
2022-11-19T20:05:51.808Z,-2.57
2022-11-19T20:10:56.558Z,-2.56
2022-11-19T20:16:24.379Z,-2.55
2022-11-19T20:21:31.981Z,-2.54
2022-11-19T20:26:35.269Z,-2.54
2022-11-19T20:31:39.082Z,-2.55
2022-11-19T20:36:43.109Z,-2.54
2022-11-19T20:42:04.748Z,-2.54
2022-11-19T20:47:08.577Z,-2.52
2022-11-19T20:52:14.224Z,-2.51
2022-11-19T20:57:19.084Z,-2.50
2022-11-19T21:02:23.451Z,-2.47
2022-11-19T21:07:27.185Z,-2.44
2022-11-19T21:12:30.758Z,-2.44
2022-11-19T21:17:34.170Z,-2.44
2022-11-19T21:22:37.276Z,-2.47
2022-11-19T21:27:40.791Z,-2.50
2022-11-19T21:32:44.099Z,-2.53
2022-11-19T21:37:47.650Z,-2.54
2022-11-19T21:42:51.338Z,-2.55
2022-11-19T21:47:54.759Z,-2.55
2022-11-19T21:52:58.057Z,-2.56
2022-11-19T21:58:05.175Z,-2.57
2022-11-19T22:03:08.882Z,-2.59
2022-11-19T22:08:12.597Z,-2.62
2022-11-19T22:13:15.806Z,-2.65
2022-11-19T22:18:18.909Z,-2.66
2022-11-19T22:23:24.407Z,-2.66
2022-11-19T22:28:27.780Z,-2.66
2022-11-19T22:33:36.550Z,-2.66
2022-11-19T22:38:40.053Z,-2.66
2022-11-19T22:43:43.963Z,-2.67
2022-11-19T22:48:47.677Z,-2.67
2022-11-19T22:53:52.899Z,-2.66
2022-11-19T22:58:56.924Z,-2.65
2022-11-19T23:04:03.034Z,-2.63
2022-11-19T23:09:07.792Z,-2.62
2022-11-19T23:14:15.498Z,-2.61
2022-11-19T23:19:19.929Z,-2.59
2022-11-19T23:24:23.348Z,-2.57
2022-11-19T23:29:26.452Z,-2.55
2022-11-19T23:34:29.662Z,-2.52
2022-11-19T23:39:32.769Z,-2.50
2022-11-19T23:44:35.973Z,-2.48
2022-11-19T23:49:39.389Z,-2.46
2022-11-19T23:54:42.492Z,-2.44
2022-11-19T23:59:45.698Z,-2.43
